Time;durP1;ratioP1;P1;durP2;ratioP2;P2;SDS_P1;SDS_P2;PMS_P1;PMS_P2;Temp;Humidity;BMP_temperature;BMP_pressure;BME280_temperature;BME280_humidity;BME280_pressure;Samples;Min_cycle;Max_cycle;Signal;HPM_P1;HPM_P2
2021/12/19 00:00:04;;;;;;;;;;;7.40;99.90;;;;;;5076989;28;19924;-39
2021/12/19 00:02:46;;;;;;;;;;;7.40;99.90;;;;;;5066143;28;20008;-40
2021/12/19 00:10:42;;;;;;;;;;;7.40;99.90;;;;;;5076184;28;19925;-38
2021/12/19 00:13:09;;;;;;;;;;;7.40;99.90;;;;;;5076360;28;20023;-40
2021/12/19 00:15:36;;;;;;;;;;;7.40;99.90;;;;;;5075417;28;19925;-39
2021/12/19 00:18:04;;;;;;;;;;;7.40;99.90;;;;;;5076072;28;19924;-38
2021/12/19 00:20:31;;;;;;;;;;;7.40;99.90;;;;;;5076366;28;19924;-38
2021/12/19 00:22:58;;;;;;;;;;;7.40;99.90;;;;;;5075241;28;20026;-39
2021/12/19 00:25:24;;;;;;;;;;;7.40;99.90;;;;;;5075829;28;19931;-39
2021/12/19 00:27:51;;;;;;;;;;;7.40;99.90;;;;;;5075181;28;20348;-38
2021/12/19 00:30:18;;;;;;;;;;;7.40;99.90;;;;;;5075606;28;20258;-39
2021/12/19 00:32:45;;;;;;;;;;;7.40;99.90;;;;;;5109235;28;20017;-39
2021/12/19 00:35:13;;;;;;;;;;;7.40;99.90;;;;;;5075593;28;19924;-39
2021/12/19 00:37:39;;;;;;;;;;;7.40;99.90;;;;;;5109154;28;19971;-39
2021/12/19 00:40:07;;;;;;;;;;;7.40;99.90;;;;;;5075427;28;19976;-38
2021/12/19 00:42:35;;;;;;;;;;;7.50;99.90;;;;;;5075460;28;19982;-38
2021/12/19 00:45:05;;;;;;;;;;;7.40;99.90;;;;;;5070783;28;19925;-40
2021/12/19 00:47:32;;;;;;;;;;;7.40;99.90;;;;;;5069418;28;19925;-39
2021/12/19 00:49:59;;;;;;;;;;;7.40;99.90;;;;;;5075224;28;20414;-39
2021/12/19 00:52:27;;;;;;;;;;;7.50;99.90;;;;;;5075670;28;20065;-39
2021/12/19 00:54:53;;;;;;;;;;;7.40;99.90;;;;;;5074406;28;19968;-38
2021/12/19 00:57:20;;;;;;;;;;;7.50;99.90;;;;;;5074530;28;19924;-39
2021/12/19 00:59:47;;;;;;;;;;;7.50;99.90;;;;;;5075352;28;20011;-38
2021/12/19 01:02:14;;;;;;;;;;;7.50;99.90;;;;;;5074205;28;20454;-39
2021/12/19 01:04:40;;;;;;;;;;;7.50;99.90;;;;;;5073846;28;20342;-38
2021/12/19 01:07:10;;;;;;;;;;;7.50;99.90;;;;;;5108200;28;19976;-39
2021/12/19 01:09:38;;;;;;;;;;;7.50;99.90;;;;;;5106965;28;20460;-39
2021/12/19 01:12:09;;;;;;;;;;;7.50;99.90;;;;;;5074363;28;20326;-40
2021/12/19 01:14:36;;;;;;;;;;;7.50;99.90;;;;;;5073758;28;19924;-38
2021/12/19 01:17:03;;;;;;;;;;;7.50;99.90;;;;;;5074516;28;19925;-39
2021/12/19 01:19:30;;;;;;;;;;;7.50;99.90;;;;;;5087182;28;19933;-39
2021/12/19 01:21:57;;;;;;;;;;;7.40;99.90;;;;;;5074533;28;19924;-39
2021/12/19 01:24:24;;;;;;;;;;;7.40;99.90;;;;;;5073656;28;20013;-40
2021/12/19 01:26:52;;;;;;;;;;;7.50;99.90;;;;;;5074874;28;19935;-39
2021/12/19 01:29:18;;;;;;;;;;;7.40;99.90;;;;;;5074600;28;19924;-39
2021/12/19 01:31:45;;;;;;;;;;;7.40;99.90;;;;;;5071727;28;20369;-40
2021/12/19 01:34:12;;;;;;;;;;;7.40;99.90;;;;;;5074649;28;20295;-39
2021/12/19 01:36:39;;;;;;;;;;;7.40;99.90;;;;;;5072200;28;20270;-39
2021/12/19 01:39:06;;;;;;;;;;;7.40;99.90;;;;;;5071292;28;19975;-40
2021/12/19 01:41:33;;;;;;;;;;;7.40;99.90;;;;;;5073762;28;19924;-39
2021/12/19 01:44:01;;;;;;;;;;;7.40;99.90;;;;;;5073683;28;19928;-38
2021/12/19 01:46:28;;;;;;;;;;;7.50;99.90;;;;;;5073472;28;20425;-39
2021/12/19 01:48:54;;;;;;;;;;;7.40;99.90;;;;;;5074337;28;19931;-38
2021/12/19 01:51:21;;;;;;;;;;;7.40;99.90;;;;;;5062770;28;19960;-39
2021/12/19 01:53:48;;;;;;;;;;;7.50;99.90;;;;;;5075021;28;19956;-39
2021/12/19 01:56:15;;;;;;;;;;;7.40;99.90;;;;;;5091766;28;19932;-39
2021/12/19 01:58:42;;;;;;;;;;;7.40;99.90;;;;;;5083995;28;19924;-38
2021/12/19 02:01:10;;;;;;;;;;;7.40;99.90;;;;;;5093986;28;19924;-39
2021/12/19 02:03:37;;;;;;;;;;;7.40;99.90;;;;;;5089291;28;20299;-38
2021/12/19 02:06:04;;;;;;;;;;;7.50;99.90;;;;;;5091882;28;19951;-39
2021/12/19 02:08:31;;;;;;;;;;;7.40;99.90;;;;;;5092403;28;19928;-39
2021/12/19 02:10:58;;;;;;;;;;;7.40;99.90;;;;;;5076040;28;19963;-39
2021/12/19 02:13:26;;;;;;;;;;;7.40;99.90;;;;;;5083241;28;19925;-39
2021/12/19 02:15:53;;;;;;;;;;;7.40;99.90;;;;;;5071574;28;19933;-39
2021/12/19 02:18:22;;;;;;;;;;;7.40;99.90;;;;;;5072242;28;19930;-40
2021/12/19 02:20:51;;;;;;;;;;;7.40;99.90;;;;;;5071925;28;19924;-38
2021/12/19 02:23:18;;;;;;;;;;;7.40;99.90;;;;;;5073708;28;19931;-38
2021/12/19 02:25:45;;;;;;;;;;;7.40;99.90;;;;;;5065515;28;19925;-39
2021/12/19 02:28:12;;;;;;;;;;;7.40;99.90;;;;;;5066803;28;20023;-39
2021/12/19 02:30:39;;;;;;;;;;;7.40;99.90;;;;;;5071097;28;20023;-40
2021/12/19 02:33:06;;;;;;;;;;;7.40;99.90;;;;;;5073546;28;19934;-40
2021/12/19 02:35:34;;;;;;;;;;;7.40;99.90;;;;;;5070716;28;20304;-39
2021/12/19 02:49:20;;;;;;;;;;;7.30;99.90;;;;;;5069319;28;19929;-40
2021/12/19 02:51:47;;;;;;;;;;;7.30;99.90;;;;;;5069247;28;19925;-39
2021/12/19 02:54:15;;;;;;;;;;;7.30;99.90;;;;;;5071320;28;19986;-39
2021/12/19 02:56:42;;;;;;;;;;;7.30;99.90;;;;;;5072184;28;19968;-39
2021/12/19 02:59:09;;;;;;;;;;;7.30;99.90;;;;;;5068456;28;20393;-39
2021/12/19 03:01:36;;;;;;;;;;;7.30;99.90;;;;;;5065510;28;20308;-41
2021/12/19 03:04:03;;;;;;;;;;;7.30;99.90;;;;;;5068666;28;19971;-38
2021/12/19 03:06:29;;;;;;;;;;;7.30;99.90;;;;;;5053519;28;19931;-39
2021/12/19 03:09:02;;;;;;;;;;;7.20;99.90;;;;;;5068709;28;20008;-39
2021/12/19 03:19:41;;;;;;;;;;;7.20;99.90;;;;;;5072713;28;19972;-38
2021/12/19 03:22:08;;;;;;;;;;;7.20;99.90;;;;;;5072871;28;19931;-40
2021/12/19 03:24:35;;;;;;;;;;;7.20;99.90;;;;;;5105428;28;19989;-38
2021/12/19 03:27:03;;;;;;;;;;;7.20;99.90;;;;;;5072873;28;20315;-39
2021/12/19 03:29:30;;;;;;;;;;;7.20;99.90;;;;;;5068957;28;19955;-42
2021/12/19 03:31:57;;;;;;;;;;;7.20;99.90;;;;;;5071471;28;20392;-39
2021/12/19 03:34:23;;;;;;;;;;;7.20;99.90;;;;;;5072642;28;20007;-38
2021/12/19 03:36:51;;;;;;;;;;;7.20;99.90;;;;;;5071911;28;19971;-38
2021/12/19 03:39:26;;;;;;;;;;;7.20;99.90;;;;;;5072597;28;19932;-39
2021/12/19 03:41:54;;;;;;;;;;;7.20;99.90;;;;;;5072681;28;19932;-39
2021/12/19 03:44:22;;;;;;;;;;;7.20;99.90;;;;;;5072722;28;20339;-39
2021/12/19 03:46:49;;;;;;;;;;;7.10;99.90;;;;;;5071371;28;19934;-39
2021/12/19 03:49:18;;;;;;;;;;;7.20;99.90;;;;;;5072210;28;19925;-39
2021/12/19 03:51:45;;;;;;;;;;;7.10;99.90;;;;;;5071323;28;19925;-39
2021/12/19 03:54:12;;;;;;;;;;;7.10;99.90;;;;;;5071943;28;19929;-38
2021/12/19 03:56:39;;;;;;;;;;;7.10;99.90;;;;;;5072357;28;19947;-39
2021/12/19 03:59:05;;;;;;;;;;;7.10;99.90;;;;;;5071272;28;20022;-39
2021/12/19 04:01:34;;;;;;;;;;;7.10;99.90;;;;;;5071271;28;19932;-39
2021/12/19 04:04:01;;;;;;;;;;;7.10;99.90;;;;;;5068031;28;20403;-38
2021/12/19 04:06:28;;;;;;;;;;;7.10;99.90;;;;;;5060628;28;19925;-39
2021/12/19 04:08:56;;;;;;;;;;;7.20;99.90;;;;;;5067206;28;20273;-39
2021/12/19 04:11:24;;;;;;;;;;;7.20;99.90;;;;;;5064186;28;19925;-39
2021/12/19 04:13:51;;;;;;;;;;;7.10;99.90;;;;;;5056905;28;19963;-39
2021/12/19 04:16:18;;;;;;;;;;;7.10;99.90;;;;;;5072287;28;20408;-39
2021/12/19 04:18:46;;;;;;;;;;;7.10;99.90;;;;;;5071724;28;19931;-38
2021/12/19 04:21:13;;;;;;;;;;;7.10;99.90;;;;;;5072010;28;19924;-38
2021/12/19 04:23:40;;;;;;;;;;;7.10;99.90;;;;;;5072006;28;19924;-38
2021/12/19 04:26:07;;;;;;;;;;;7.10;99.90;;;;;;5052130;28;20258;-39
2021/12/19 04:28:34;;;;;;;;;;;7.10;99.90;;;;;;5072071;28;19924;-38
2021/12/19 04:31:02;;;;;;;;;;;7.10;99.90;;;;;;5075816;28;19978;-38
2021/12/19 04:33:30;;;;;;;;;;;7.10;99.90;;;;;;5075613;28;20303;-39
2021/12/19 04:36:01;;;;;;;;;;;7.10;99.90;;;;;;5074581;28;19925;-39
2021/12/19 04:44:40;;;;;;;;;;;7.00;99.90;;;;;;5075078;28;20300;-39
2021/12/19 04:53:01;;;;;;;;;;;6.90;99.90;;;;;;5073939;28;20273;-40
2021/12/19 04:58:46;;;;;;;;;;;6.90;99.90;;;;;;5032037;28;19995;-38
2021/12/19 05:01:25;;;;;;;;;;;7.00;99.90;;;;;;5074990;28;19925;-38
2021/12/19 05:04:06;;;;;;;;;;;6.90;99.90;;;;;;5073833;28;19956;-39
2021/12/19 05:06:50;;;;;;;;;;;6.90;99.90;;;;;;5075438;28;19928;-39
2021/12/19 05:14:51;;;;;;;;;;;6.90;99.90;;;;;;5067737;28;19931;-39
2021/12/19 05:17:22;;;;;;;;;;;6.90;99.90;;;;;;5107874;28;19956;-39
2021/12/19 05:20:03;;;;;;;;;;;6.90;99.90;;;;;;5067896;28;20437;-39
2021/12/19 05:22:32;;;;;;;;;;;6.90;99.90;;;;;;5073433;28;20387;-38
2021/12/19 05:25:12;;;;;;;;;;;6.90;99.90;;;;;;5074023;28;19924;-39
2021/12/19 05:27:39;;;;;;;;;;;6.90;99.90;;;;;;5073133;28;20285;-38
2021/12/19 05:30:07;;;;;;;;;;;6.90;99.90;;;;;;5074544;28;20346;-39
2021/12/19 05:32:33;;;;;;;;;;;6.90;99.90;;;;;;5074489;28;19924;-38
2021/12/19 05:35:00;;;;;;;;;;;7.00;99.90;;;;;;5074914;28;19968;-38
2021/12/19 05:45:40;;;;;;;;;;;7.00;99.90;;;;;;5073807;28;19925;-39
2021/12/19 05:48:07;;;;;;;;;;;6.90;99.90;;;;;;5072571;28;19924;-38
2021/12/19 05:50:34;;;;;;;;;;;6.90;99.90;;;;;;5074086;28;20023;-38
2021/12/19 05:53:01;;;;;;;;;;;6.90;99.90;;;;;;5074160;28;19930;-40
2021/12/19 05:55:29;;;;;;;;;;;7.00;99.90;;;;;;5060088;28;20456;-38
2021/12/19 05:57:56;;;;;;;;;;;7.00;99.90;;;;;;5073468;28;20679;-38
2021/12/19 06:00:23;;;;;;;;;;;7.00;99.90;;;;;;5073013;28;19932;-38
2021/12/19 06:02:49;;;;;;;;;;;7.00;99.90;;;;;;5073971;28;19924;-39
2021/12/19 06:05:16;;;;;;;;;;;7.00;99.90;;;;;;5073366;28;20015;-40
2021/12/19 06:07:43;;;;;;;;;;;7.00;99.90;;;;;;5072860;28;20375;-39
2021/12/19 06:10:10;;;;;;;;;;;7.00;99.90;;;;;;5074643;28;19931;-38
2021/12/19 06:12:39;;;;;;;;;;;7.00;99.90;;;;;;5072969;28;19976;-39
2021/12/19 06:15:06;;;;;;;;;;;7.00;99.90;;;;;;5072401;28;19924;-39
2021/12/19 06:17:32;;;;;;;;;;;7.10;99.90;;;;;;5082917;28;19978;-40
2021/12/19 06:19:59;;;;;;;;;;;7.10;99.90;;;;;;5072660;28;20030;-38
2021/12/19 06:22:26;;;;;;;;;;;7.10;99.90;;;;;;5073769;28;20432;-38
2021/12/19 06:24:53;;;;;;;;;;;7.10;99.90;;;;;;5069013;28;19979;-39
2021/12/19 06:27:20;;;;;;;;;;;7.10;99.90;;;;;;5068626;28;19924;-39
2021/12/19 06:29:49;;;;;;;;;;;7.10;99.90;;;;;;5072399;28;19979;-39
2021/12/19 06:32:16;;;;;;;;;;;7.10;99.90;;;;;;5073399;28;19936;-39
2021/12/19 06:34:43;;;;;;;;;;;7.10;99.90;;;;;;5072735;28;19925;-39
2021/12/19 06:37:10;;;;;;;;;;;7.10;99.90;;;;;;5073475;28;19979;-39
2021/12/19 06:39:38;;;;;;;;;;;7.10;99.90;;;;;;5073255;28;19964;-38
2021/12/19 06:42:05;;;;;;;;;;;7.10;99.90;;;;;;5072339;28;19968;-39
2021/12/19 06:44:32;;;;;;;;;;;7.10;99.90;;;;;;5070045;28;19979;-38
2021/12/19 06:47:00;;;;;;;;;;;7.10;99.90;;;;;;5073665;28;19978;-38
2021/12/19 06:49:27;;;;;;;;;;;7.10;99.90;;;;;;5072981;28;20015;-39
2021/12/19 06:51:53;;;;;;;;;;;7.10;99.90;;;;;;5070422;28;19929;-39
2021/12/19 06:54:20;;;;;;;;;;;7.10;99.90;;;;;;5072871;28;19971;-39
2021/12/19 06:56:47;;;;;;;;;;;7.10;99.90;;;;;;5073038;28;19932;-39
2021/12/19 06:59:14;;;;;;;;;;;7.10;99.90;;;;;;5071844;28;20390;-40
2021/12/19 07:01:41;;;;;;;;;;;7.10;99.90;;;;;;5072647;28;20399;-38
2021/12/19 07:04:09;;;;;;;;;;;7.20;99.90;;;;;;5073113;28;20002;-39
2021/12/19 07:06:36;;;;;;;;;;;7.10;99.90;;;;;;5080996;28;19935;-41
2021/12/19 07:09:02;;;;;;;;;;;7.20;99.90;;;;;;5083153;28;20386;-39
2021/12/19 07:11:31;;;;;;;;;;;7.10;99.90;;;;;;5070735;28;20446;-39
2021/12/19 07:13:58;;;;;;;;;;;7.10;99.90;;;;;;5071464;28;20319;-39
2021/12/19 07:16:25;;;;;;;;;;;7.20;99.90;;;;;;5071794;28;19975;-42
2021/12/19 07:18:51;;;;;;;;;;;7.20;99.90;;;;;;5072609;28;19930;-39
2021/12/19 07:21:20;;;;;;;;;;;7.20;99.90;;;;;;5068413;28;20099;-39
2021/12/19 07:23:46;;;;;;;;;;;7.20;99.90;;;;;;5056412;28;19925;-39
2021/12/19 07:26:13;;;;;;;;;;;7.20;99.90;;;;;;5072483;28;19951;-40
2021/12/19 07:28:44;;;;;;;;;;;7.20;99.90;;;;;;5071597;28;19980;-40
2021/12/19 07:31:11;;;;;;;;;;;7.20;99.90;;;;;;5073262;28;20364;-38
2021/12/19 07:33:37;;;;;;;;;;;7.20;99.90;;;;;;5072671;28;20016;-39
2021/12/19 07:36:04;;;;;;;;;;;7.10;99.90;;;;;;5071894;28;19933;-39
2021/12/19 07:38:37;;;;;;;;;;;7.10;99.90;;;;;;5072375;28;20450;-39
2021/12/19 07:41:05;;;;;;;;;;;7.20;99.90;;;;;;5072558;28;19964;-39
2021/12/19 07:43:31;;;;;;;;;;;7.20;99.90;;;;;;5070456;28;19924;-38
2021/12/19 07:45:58;;;;;;;;;;;7.20;99.90;;;;;;5072421;28;20042;-39
2021/12/19 07:48:25;;;;;;;;;;;7.10;99.90;;;;;;5072059;28;19925;-40
2021/12/19 07:50:52;;;;;;;;;;;7.10;99.90;;;;;;5071451;28;20269;-39
2021/12/19 07:53:19;;;;;;;;;;;7.10;99.90;;;;;;5070855;28;19933;-39
2021/12/19 07:55:47;;;;;;;;;;;7.20;99.90;;;;;;5071892;28;19924;-38
2021/12/19 07:58:14;;;;;;;;;;;7.20;99.90;;;;;;5071156;28;20066;-40
2021/12/19 08:00:40;;;;;;;;;;;7.20;99.90;;;;;;5073630;28;19960;-39
2021/12/19 08:03:07;;;;;;;;;;;7.20;99.90;;;;;;5052815;28;19932;-39
2021/12/19 08:05:34;;;;;;;;;;;7.20;99.90;;;;;;5073707;28;20029;-41
2021/12/19 08:08:03;;;;;;;;;;;7.10;99.90;;;;;;5068845;28;19947;-39
2021/12/19 08:13:16;;;;;;;;;;;7.20;99.90;;;;;;5075700;28;19925;-39
2021/12/19 08:15:43;;;;;;;;;;;7.20;99.90;;;;;;5066227;28;19947;-39
2021/12/19 08:18:09;;;;;;;;;;;7.20;99.90;;;;;;5059572;28;19967;-38
2021/12/19 08:20:36;;;;;;;;;;;7.20;99.90;;;;;;5065365;28;19946;-39
2021/12/19 08:23:03;;;;;;;;;;;7.20;99.90;;;;;;5067647;28;19997;-39
2021/12/19 08:25:30;;;;;;;;;;;7.20;99.90;;;;;;5063457;28;19963;-39
2021/12/19 08:27:57;;;;;;;;;;;7.20;99.90;;;;;;5062175;28;20281;-39
2021/12/19 08:30:25;;;;;;;;;;;7.20;99.90;;;;;;5071505;28;19971;-39
2021/12/19 08:32:55;;;;;;;;;;;7.20;99.90;;;;;;5070749;28;19928;-39
2021/12/19 08:35:21;;;;;;;;;;;7.20;99.90;;;;;;5060865;28;20453;-39
2021/12/19 08:37:48;;;;;;;;;;;7.20;99.90;;;;;;5074786;28;20022;-39
2021/12/19 08:40:15;;;;;;;;;;;7.20;99.90;;;;;;5075655;28;19950;-39
2021/12/19 08:42:42;;;;;;;;;;;7.20;99.90;;;;;;5074666;28;20371;-39
2021/12/19 08:45:09;;;;;;;;;;;7.20;99.90;;;;;;5071153;28;19966;-39
2021/12/19 08:47:37;;;;;;;;;;;7.20;99.90;;;;;;5074770;28;20011;-40
2021/12/19 08:50:04;;;;;;;;;;;7.20;99.90;;;;;;5061346;28;19929;-39
2021/12/19 08:52:31;;;;;;;;;;;7.20;99.90;;;;;;5074046;28;19924;-39
2021/12/19 08:54:58;;;;;;;;;;;7.20;99.90;;;;;;5074591;28;19924;-39
2021/12/19 08:57:25;;;;;;;;;;;7.30;99.90;;;;;;5074613;28;19924;-38
2021/12/19 08:59:52;;;;;;;;;;;7.30;99.90;;;;;;5074781;28;19931;-39
2021/12/19 09:02:18;;;;;;;;;;;7.30;99.90;;;;;;5073111;28;20280;-39
2021/12/19 09:04:46;;;;;;;;;;;7.20;99.90;;;;;;5074974;28;19925;-38
2021/12/19 09:07:14;;;;;;;;;;;7.30;99.90;;;;;;5075030;28;19994;-38
2021/12/19 09:09:41;;;;;;;;;;;7.30;99.90;;;;;;5063974;28;19924;-38
2021/12/19 09:12:08;;;;;;;;;;;7.30;99.90;;;;;;5074825;28;19967;-39
2021/12/19 09:14:35;;;;;;;;;;;7.30;99.90;;;;;;5070162;28;19972;-38
2021/12/19 09:17:02;;;;;;;;;;;7.30;99.90;;;;;;5059110;28;19924;-38
2021/12/19 09:19:29;;;;;;;;;;;7.30;99.90;;;;;;5082915;28;19924;-38
2021/12/19 09:21:57;;;;;;;;;;;7.30;99.90;;;;;;5056151;28;19928;-38
2021/12/19 09:24:24;;;;;;;;;;;7.30;99.90;;;;;;5072362;28;20431;-38
2021/12/19 09:26:50;;;;;;;;;;;7.30;99.90;;;;;;5089964;28;19986;-39
2021/12/19 09:29:20;;;;;;;;;;;7.40;99.90;;;;;;5058798;28;20041;-38
2021/12/19 09:31:47;;;;;;;;;;;7.40;99.90;;;;;;5072798;28;19931;-39
2021/12/19 09:34:14;;;;;;;;;;;7.40;99.90;;;;;;5072683;28;19936;-38
2021/12/19 09:36:41;;;;;;;;;;;7.40;99.90;;;;;;5074862;28;20017;-38
2021/12/19 09:39:09;;;;;;;;;;;7.30;99.90;;;;;;5070771;28;19967;-38
2021/12/19 09:41:42;;;;;;;;;;;7.40;99.90;;;;;;5073862;28;19925;-38
2021/12/19 09:44:11;;;;;;;;;;;7.40;99.90;;;;;;5072925;28;19924;-38
2021/12/19 09:46:38;;;;;;;;;;;7.40;99.90;;;;;;5072452;28;19925;-38
2021/12/19 09:49:05;;;;;;;;;;;7.40;99.90;;;;;;5106722;28;19971;-39
2021/12/19 09:51:32;;;;;;;;;;;7.40;99.90;;;;;;5073410;28;19929;-41
2021/12/19 09:53:58;;;;;;;;;;;7.50;99.90;;;;;;5067929;28;19931;-38
2021/12/19 09:56:27;;;;;;;;;;;7.50;99.90;;;;;;5069072;28;19925;-41
2021/12/19 09:58:54;;;;;;;;;;;7.50;99.90;;;;;;5067695;28;20458;-38
2021/12/19 10:01:20;;;;;;;;;;;7.60;99.90;;;;;;5067136;28;20021;-40
2021/12/19 10:03:47;;;;;;;;;;;7.60;99.90;;;;;;5073357;28;19930;-38
2021/12/19 10:06:15;;;;;;;;;;;7.60;99.90;;;;;;5073881;28;20357;-38
2021/12/19 10:08:42;;;;;;;;;;;7.60;99.90;;;;;;5072444;28;19987;-38
2021/12/19 10:11:28;;;;;;;;;;;7.70;99.90;;;;;;5072746;28;20396;-39
2021/12/19 10:13:56;;;;;;;;;;;7.70;99.90;;;;;;5070681;28;20024;-39
2021/12/19 10:16:24;;;;;;;;;;;7.60;99.90;;;;;;5103537;28;19964;-38
2021/12/19 10:18:51;;;;;;;;;;;7.70;99.90;;;;;;5071887;28;19925;-38
2021/12/19 10:21:18;;;;;;;;;;;7.70;99.90;;;;;;5073452;28;19925;-38
2021/12/19 10:23:45;;;;;;;;;;;7.70;99.90;;;;;;5095013;28;19994;-38
2021/12/19 10:26:12;;;;;;;;;;;7.70;99.90;;;;;;5060474;28;20039;-39
2021/12/19 10:28:48;;;;;;;;;;;7.70;99.90;;;;;;5068825;28;19930;-40
2021/12/19 10:31:16;;;;;;;;;;;7.70;99.90;;;;;;5072643;28;19967;-38
2021/12/19 10:33:43;;;;;;;;;;;7.70;99.90;;;;;;5072993;28;19924;-39
2021/12/19 10:36:10;;;;;;;;;;;7.70;99.90;;;;;;5073516;28;20007;-38
2021/12/19 10:38:37;;;;;;;;;;;7.70;99.90;;;;;;5065581;28;20328;-38
2021/12/19 10:41:06;;;;;;;;;;;7.70;99.90;;;;;;5078250;28;19936;-39
2021/12/19 10:43:33;;;;;;;;;;;7.70;99.90;;;;;;5065144;28;19978;-38
2021/12/19 10:46:00;;;;;;;;;;;7.70;99.90;;;;;;5064783;28;20310;-39
2021/12/19 10:48:29;;;;;;;;;;;7.70;99.90;;;;;;5067034;28;20811;-39
2021/12/19 10:51:01;;;;;;;;;;;7.70;99.90;;;;;;5065405;28;19924;-39
2021/12/19 10:53:29;;;;;;;;;;;7.70;99.90;;;;;;5069274;28;20380;-42
2021/12/19 10:55:56;;;;;;;;;;;7.80;99.90;;;;;;5066200;28;19925;-39
2021/12/19 10:58:24;;;;;;;;;;;7.80;99.90;;;;;;5064672;28;19935;-39
2021/12/19 11:00:55;;;;;;;;;;;7.80;99.90;;;;;;5066690;28;19924;-39
2021/12/19 11:03:36;;;;;;;;;;;7.80;99.90;;;;;;5064373;28;20277;-39
2021/12/19 11:06:14;;;;;;;;;;;7.80;99.90;;;;;;5067438;28;19935;-40
2021/12/19 11:08:41;;;;;;;;;;;7.80;99.90;;;;;;5067557;28;19933;-39
2021/12/19 11:11:08;;;;;;;;;;;7.90;99.90;;;;;;5071007;28;19964;-39
2021/12/19 11:13:35;;;;;;;;;;;7.90;99.90;;;;;;5070622;28;19978;-38
2021/12/19 11:16:02;;;;;;;;;;;7.80;99.90;;;;;;5060609;28;19938;-40
2021/12/19 11:18:29;;;;;;;;;;;7.90;99.90;;;;;;5070696;28;20351;-39
2021/12/19 11:20:55;;;;;;;;;;;7.80;99.90;;;;;;5071927;28;20284;-38
2021/12/19 11:23:26;;;;;;;;;;;7.90;99.90;;;;;;5069237;28;19925;-39
2021/12/19 11:25:54;;;;;;;;;;;7.90;99.90;;;;;;5069517;28;19933;-39
2021/12/19 11:28:21;;;;;;;;;;;7.90;99.90;;;;;;5061448;28;19964;-40
2021/12/19 11:30:48;;;;;;;;;;;7.90;99.90;;;;;;5069597;28;19947;-39
2021/12/19 11:33:17;;;;;;;;;;;7.90;99.90;;;;;;5057218;28;20024;-38
2021/12/19 11:35:44;;;;;;;;;;;7.90;99.90;;;;;;5060879;28;20327;-38
2021/12/19 11:38:11;;;;;;;;;;;7.90;99.90;;;;;;5068821;28;19924;-39
2021/12/19 11:40:39;;;;;;;;;;;7.90;99.90;;;;;;5071525;28;19925;-38
2021/12/19 11:43:06;;;;;;;;;;;8.00;99.90;;;;;;5056761;28;19924;-38
2021/12/19 11:45:36;;;;;;;;;;;8.00;99.90;;;;;;5065095;28;20023;-42
2021/12/19 11:48:08;;;;;;;;;;;7.90;99.90;;;;;;5072002;28;19928;-40
2021/12/19 11:50:36;;;;;;;;;;;8.00;99.90;;;;;;5069163;28;19936;-39
2021/12/19 11:53:17;;;;;;;;;;;8.00;99.90;;;;;;5070187;28;19925;-38
2021/12/19 11:55:46;;;;;;;;;;;8.00;99.90;;;;;;5059268;28;19933;-38
2021/12/19 11:58:27;;;;;;;;;;;8.10;99.90;;;;;;5061537;28;19924;-38
2021/12/19 12:01:00;;;;;;;;;;;8.00;99.90;;;;;;5065903;28;19924;-41
2021/12/19 12:03:28;;;;;;;;;;;8.00;99.90;;;;;;5063278;28;19932;-43
2021/12/19 12:06:10;;;;;;;;;;;8.00;99.90;;;;;;5073574;28;19932;-38
2021/12/19 12:08:37;;;;;;;;;;;8.00;99.90;;;;;;5056716;28;19978;-39
2021/12/19 12:11:11;;;;;;;;;;;8.00;99.90;;;;;;5073233;28;19929;-38
2021/12/19 12:13:39;;;;;;;;;;;8.00;99.90;;;;;;5065655;28;19931;-38
2021/12/19 12:16:29;;;;;;;;;;;8.00;99.90;;;;;;5056775;28;19929;-38
2021/12/19 12:18:56;;;;;;;;;;;8.00;99.90;;;;;;5056323;28;19968;-39
2021/12/19 12:21:27;;;;;;;;;;;8.00;99.90;;;;;;5062356;28;20330;-38
2021/12/19 12:23:55;;;;;;;;;;;8.00;99.90;;;;;;5067371;28;19924;-39
2021/12/19 12:26:24;;;;;;;;;;;8.00;99.90;;;;;;5059563;28;19928;-39
2021/12/19 12:28:51;;;;;;;;;;;8.00;99.90;;;;;;5068759;28;19928;-41
2021/12/19 12:31:18;;;;;;;;;;;8.10;99.90;;;;;;5065994;28;20290;-39
2021/12/19 12:33:44;;;;;;;;;;;8.10;99.90;;;;;;5061446;28;20024;-39
2021/12/19 12:36:11;;;;;;;;;;;8.00;99.90;;;;;;5065498;28;19960;-39
2021/12/19 12:38:38;;;;;;;;;;;8.00;99.90;;;;;;5066528;28;19924;-40
2021/12/19 12:41:09;;;;;;;;;;;8.00;99.90;;;;;;5062963;28;20296;-39
2021/12/19 12:43:39;;;;;;;;;;;8.10;99.90;;;;;;5066577;28;19947;-38
2021/12/19 12:46:09;;;;;;;;;;;8.10;99.90;;;;;;5072371;28;20029;-38
2021/12/19 12:48:37;;;;;;;;;;;8.00;99.90;;;;;;5073845;28;19931;-39
2021/12/19 12:51:05;;;;;;;;;;;8.00;99.90;;;;;;5069810;28;20015;-39
2021/12/19 12:53:32;;;;;;;;;;;8.10;99.90;;;;;;5070426;28;19924;-39
2021/12/19 12:56:09;;;;;;;;;;;8.10;99.90;;;;;;5069478;28;19925;-39
2021/12/19 12:58:41;;;;;;;;;;;8.00;99.90;;;;;;5072333;28;19924;-39
2021/12/19 13:01:15;;;;;;;;;;;8.10;99.90;;;;;;5086717;28;19959;-40
2021/12/19 13:03:53;;;;;;;;;;;8.00;99.90;;;;;;5072033;28;20265;-39
2021/12/19 13:06:34;;;;;;;;;;;8.00;99.90;;;;;;5074362;28;19931;-39
2021/12/19 13:09:08;;;;;;;;;;;8.00;99.90;;;;;;5073420;28;19963;-38
2021/12/19 13:11:34;;;;;;;;;;;8.00;99.90;;;;;;5074075;28;19928;-38
2021/12/19 13:14:11;;;;;;;;;;;8.10;99.90;;;;;;5070760;28;19947;-39
2021/12/19 13:16:41;;;;;;;;;;;8.00;99.90;;;;;;5066323;28;19940;-38
2021/12/19 13:19:08;;;;;;;;;;;8.00;99.90;;;;;;5072375;28;19924;-39
2021/12/19 13:21:49;;;;;;;;;;;8.00;99.90;;;;;;5074764;28;19928;-39
2021/12/19 13:24:19;;;;;;;;;;;8.10;99.90;;;;;;5072594;28;19924;-38
2021/12/19 13:26:46;;;;;;;;;;;8.00;99.90;;;;;;5072002;28;19980;-38
2021/12/19 13:29:18;;;;;;;;;;;8.00;99.90;;;;;;5071563;28;19972;-39
2021/12/19 13:31:45;;;;;;;;;;;8.00;99.90;;;;;;5073129;28;19928;-38
2021/12/19 13:34:13;;;;;;;;;;;8.00;99.90;;;;;;5073436;28;20027;-38
2021/12/19 13:36:40;;;;;;;;;;;8.00;99.90;;;;;;5065939;28;20072;-39
2021/12/19 13:39:16;;;;;;;;;;;8.00;99.90;;;;;;5075926;28;19978;-39
2021/12/19 13:41:43;;;;;;;;;;;8.00;99.90;;;;;;5072249;28;20300;-38
2021/12/19 13:44:10;;;;;;;;;;;8.00;99.90;;;;;;5061378;28;19979;-39
2021/12/19 13:46:38;;;;;;;;;;;8.00;99.90;;;;;;5071122;28;19970;-38
2021/12/19 13:49:04;;;;;;;;;;;8.00;99.90;;;;;;5069137;28;19928;-39
2021/12/19 13:51:31;;;;;;;;;;;8.00;99.90;;;;;;5059484;28;19924;-40
2021/12/19 13:53:59;;;;;;;;;;;8.00;99.90;;;;;;5064378;28;19925;-39
2021/12/19 13:56:26;;;;;;;;;;;8.00;99.90;;;;;;5062838;28;19924;-39
2021/12/19 13:58:54;;;;;;;;;;;8.00;99.90;;;;;;5067914;28;19986;-38
2021/12/19 14:01:22;;;;;;;;;;;8.00;99.90;;;;;;5072290;28;19925;-39
2021/12/19 14:03:50;;;;;;;;;;;8.00;99.90;;;;;;5072633;28;19924;-38
2021/12/19 14:06:22;;;;;;;;;;;8.00;99.90;;;;;;5073506;28;19968;-39
2021/12/19 14:08:51;;;;;;;;;;;8.00;99.90;;;;;;5070503;28;20375;-39
2021/12/19 14:11:18;;;;;;;;;;;7.90;99.90;;;;;;5067390;28;19925;-38
2021/12/19 14:13:57;;;;;;;;;;;8.00;99.90;;;;;;5080807;28;19970;-39
2021/12/19 14:16:28;;;;;;;;;;;8.00;99.90;;;;;;5067921;28;19928;-41
2021/12/19 14:18:56;;;;;;;;;;;8.00;99.90;;;;;;5055145;28;20003;-40
2021/12/19 14:21:30;;;;;;;;;;;8.00;99.90;;;;;;5071800;28;19924;-40
2021/12/19 14:24:07;;;;;;;;;;;8.00;99.90;;;;;;5073758;28;19939;-40
2021/12/19 14:26:34;;;;;;;;;;;8.00;99.90;;;;;;5073917;28;19975;-40
2021/12/19 14:29:00;;;;;;;;;;;8.00;99.90;;;;;;5081814;28;19973;-39
2021/12/19 14:31:27;;;;;;;;;;;8.00;99.90;;;;;;5080055;28;19946;-38
2021/12/19 14:33:56;;;;;;;;;;;8.00;99.90;;;;;;5071828;28;19975;-38
2021/12/19 14:36:27;;;;;;;;;;;8.00;99.90;;;;;;5075218;28;20396;-39
2021/12/19 14:38:59;;;;;;;;;;;8.00;99.90;;;;;;5072678;28;20388;-39
2021/12/19 14:41:28;;;;;;;;;;;8.00;99.90;;;;;;5071634;28;20392;-39
2021/12/19 14:43:55;;;;;;;;;;;8.10;99.90;;;;;;5081142;28;19924;-39
2021/12/19 14:46:25;;;;;;;;;;;8.00;99.90;;;;;;5083193;28;19930;-39
2021/12/19 14:48:52;;;;;;;;;;;8.00;99.90;;;;;;5079280;28;19933;-39
2021/12/19 14:51:24;;;;;;;;;;;8.00;99.90;;;;;;5081416;28;19931;-38
2021/12/19 14:53:58;;;;;;;;;;;8.00;99.90;;;;;;5068596;28;19924;-38
2021/12/19 14:56:26;;;;;;;;;;;8.00;99.90;;;;;;5080422;28;19932;-39
2021/12/19 14:58:53;;;;;;;;;;;8.00;99.90;;;;;;5080081;28;19924;-38
2021/12/19 15:01:22;;;;;;;;;;;8.00;99.90;;;;;;5077591;28;19925;-39
2021/12/19 15:03:50;;;;;;;;;;;8.00;99.90;;;;;;5068193;28;20035;-40
2021/12/19 15:06:21;;;;;;;;;;;8.00;99.90;;;;;;5079417;28;19959;-39
2021/12/19 15:08:50;;;;;;;;;;;8.00;99.90;;;;;;5073309;28;20007;-39
2021/12/19 15:11:17;;;;;;;;;;;8.00;99.90;;;;;;5072030;28;20269;-40
2021/12/19 15:13:43;;;;;;;;;;;8.00;99.90;;;;;;5050515;28;19929;-41
2021/12/19 15:16:10;;;;;;;;;;;7.90;99.90;;;;;;5048184;28;19936;-39
2021/12/19 15:18:37;;;;;;;;;;;8.00;99.90;;;;;;5080221;28;20035;-39
2021/12/19 15:21:04;;;;;;;;;;;7.90;99.90;;;;;;5048050;28;19932;-40
2021/12/19 15:23:31;;;;;;;;;;;7.90;99.90;;;;;;5048256;28;20069;-42
2021/12/19 15:25:59;;;;;;;;;;;7.90;99.90;;;;;;5066155;28;20355;-40
2021/12/19 15:28:27;;;;;;;;;;;7.90;99.90;;;;;;5080145;28;20018;-39
2021/12/19 15:30:54;;;;;;;;;;;7.90;99.90;;;;;;5076078;28;19940;-39
2021/12/19 15:33:21;;;;;;;;;;;7.90;99.90;;;;;;5083824;28;19963;-39